This is the latest recevied weather packets stored in our database for station/object OK1UOJ. If no packets are shown the sender has not sent any weather packets the latest 10 day(s).
| Time | Temp. | Humidity | Pressure | Rain* | Wind** | Luminosity | Snow |
|---|---|---|---|---|---|---|---|
| 1777562146 | 16.11° C | 31% | 1029.8 hPa | - | - | - | - |
| 1777561868 | 16.11° C | 30% | 1029.9 hPa | - | - | - | - |
| 1777561595 | 15.56° C | 31% | 1029.8 hPa | - | - | - | - |
| 1777561590 | 15.56° C | 31% | 1029.8 hPa | - | - | - | - |
| 1777561312 | 15.56° C | 32% | 1029.9 hPa | - | - | - | - |
| 1777561034 | 16.67° C | 30% | 1029.8 hPa | - | - | - | - |
| 1777560478 | 16.67° C | 28% | 1030 hPa | - | - | - | - |
| 1777559923 | 16.67° C | 30% | 1030 hPa | - | - | - | - |
| 1777559650 | 17.22° C | 27% | 1030.1 hPa | - | - | - | - |
| 1777559645 | 17.22° C | 27% | 1030.1 hPa | - | - | - | - |
| 1777558533 | 16.11° C | 27% | 1030.2 hPa | - | - | - | - |
| 1777558259 | 16.11° C | 28% | 1030.2 hPa | - | - | - | - |
| 1777558255 | 16.11° C | 28% | 1030.2 hPa | - | - | - | - |
| 1777557977 | 16.11° C | 29% | 1030.2 hPa | - | - | - | - |
| 1777557420 | 16.67° C | 27% | 1030.3 hPa | - | - | - | - |
| 1777557142 | 16.11° C | 28% | 1030.4 hPa | - | - | - | - |
| 1777556864 | 16.11° C | 29% | 1030.4 hPa | - | - | - | - |
| 1777556586 | 16.11° C | 26% | 1030.5 hPa | - | - | - | - |
| 1777554922 | 16.11° C | 27% | 1030.6 hPa | - | - | - | - |
| 1777554917 | 16.11° C | 27% | 1030.6 hPa | - | - | - | - |
| 1777554644 | 16.11° C | 28% | 1030.7 hPa | - | - | - | - |
| 1777554639 | 16.11° C | 28% | 1030.7 hPa | - | - | - | - |
| 1777554366 | 15.56° C | 29% | 1030.8 hPa | - | - | - | - |
| 1777554361 | 15.56° C | 29% | 1030.8 hPa | - | - | - | - |
| 1777554088 | 15.56° C | 28% | 1030.9 hPa | - | - | - | - |
* Rain since midnight (hover to see other rain measurements)
** Current wind speed in m/s (hover to see current wind gust speed)